createdAt,value
2022-11-22T00:00:57.192Z,85.69
2022-11-22T00:03:25.178Z,85.28
2022-11-22T00:05:52.948Z,85.42
2022-11-22T00:08:20.871Z,85.47
2022-11-22T00:10:52.196Z,86.03
2022-11-22T00:13:21.167Z,85.72
2022-11-22T00:16:02.508Z,86.12
2022-11-22T00:18:30.934Z,86.05
2022-11-22T00:21:04.310Z,86.18
2022-11-22T00:23:32.228Z,86.01
2022-11-22T00:25:59.951Z,85.80
2022-11-22T00:28:27.944Z,85.96
2022-11-22T00:30:55.688Z,86.14
2022-11-22T00:33:23.646Z,86.58
2022-11-22T00:35:51.358Z,85.95
2022-11-22T00:38:19.279Z,85.55
2022-11-22T00:40:46.956Z,85.23
2022-11-22T00:43:14.892Z,85.35
2022-11-22T00:45:42.878Z,85.38
2022-11-22T00:48:10.792Z,85.87
2022-11-22T00:50:39.041Z,85.62
2022-11-22T00:53:07.073Z,85.70
2022-11-22T00:55:34.810Z,85.46
2022-11-22T00:58:03.301Z,85.73
2022-11-22T01:00:31.136Z,85.98
2022-11-22T01:02:59.148Z,86.29
2022-11-22T01:05:26.913Z,86.44
2022-11-22T01:07:55.009Z,86.70
2022-11-22T01:10:23.129Z,86.50
2022-11-22T01:12:51.165Z,86.48
2022-11-22T01:15:18.945Z,86.18
2022-11-22T01:17:47.025Z,86.45
2022-11-22T01:20:14.755Z,86.64
2022-11-22T01:22:42.862Z,85.91
2022-11-22T01:25:11.022Z,86.17
2022-11-22T01:27:39.011Z,85.90
2022-11-22T01:30:07.649Z,86.25
2022-11-22T01:32:35.630Z,86.12
2022-11-22T01:35:03.483Z,86.75
2022-11-22T01:37:31.395Z,86.64
2022-11-22T01:39:59.125Z,86.82
2022-11-22T01:42:50.723Z,87.09
2022-11-22T01:45:30.454Z,87.08
2022-11-22T01:48:08.465Z,87.31
2022-11-22T01:50:39.917Z,87.19
2022-11-22T01:53:15.860Z,87.42
2022-11-22T01:55:44.629Z,86.94
2022-11-22T01:58:15.203Z,87.16
2022-11-22T02:00:44.369Z,87.20
2022-11-22T02:03:15.295Z,87.22
2022-11-22T02:05:43.324Z,86.70
2022-11-22T02:08:25.406Z,86.95
2022-11-22T02:10:55.595Z,86.51
2022-11-22T02:13:24.565Z,87.16
2022-11-22T02:15:53.117Z,87.39
2022-11-22T02:18:21.308Z,87.46
2022-11-22T02:20:49.226Z,87.39
2022-11-22T02:23:46.071Z,87.48
2022-11-22T02:26:14.747Z,87.59
2022-11-22T02:28:43.065Z,87.08
2022-11-22T02:31:30.648Z,87.11
2022-11-22T02:34:01.585Z,86.85
2022-11-22T02:36:32.400Z,87.15
2022-11-22T02:39:01.110Z,87.27
2022-11-22T02:41:28.920Z,86.98
2022-11-22T02:43:57.696Z,86.89
2022-11-22T02:46:25.422Z,87.11
2022-11-22T02:48:53.370Z,87.03
2022-11-22T02:51:21.557Z,87.24
2022-11-22T02:53:51.158Z,87.26
2022-11-22T02:56:19.405Z,87.00
2022-11-22T02:58:47.463Z,86.88
2022-11-22T03:01:15.360Z,87.13
2022-11-22T03:03:43.337Z,86.96
2022-11-22T03:06:11.073Z,87.44
2022-11-22T03:08:39.025Z,87.62
2022-11-22T03:11:06.816Z,87.74
2022-11-22T03:13:34.739Z,87.33
2022-11-22T03:16:02.505Z,87.46
2022-11-22T03:18:30.526Z,87.39
2022-11-22T03:21:06.769Z,87.43
2022-11-22T03:23:35.454Z,87.56
2022-11-22T03:26:11.142Z,86.59
2022-11-22T03:28:39.521Z,86.98
2022-11-22T03:31:08.214Z,87.26
2022-11-22T03:33:36.391Z,87.08
2022-11-22T03:36:04.385Z,87.16
2022-11-22T03:38:34.241Z,87.48
2022-11-22T03:41:02.157Z,87.46
2022-11-22T03:43:30.106Z,87.48
2022-11-22T03:45:57.828Z,87.58
2022-11-22T03:48:25.940Z,87.54
2022-11-22T03:50:53.599Z,87.87
2022-11-22T03:53:21.515Z,87.12
2022-11-22T03:55:49.194Z,87.10
2022-11-22T03:58:17.154Z,86.54
2022-11-22T04:00:44.859Z,85.82
2022-11-22T04:03:12.755Z,86.47
2022-11-22T04:05:40.510Z,86.46
2022-11-22T04:08:08.425Z,86.52
2022-11-22T04:10:36.542Z,86.53
2022-11-22T04:13:04.507Z,86.73
2022-11-22T04:15:32.142Z,86.60
2022-11-22T04:18:00.085Z,86.98
2022-11-22T04:20:48.626Z,87.29
2022-11-22T04:23:18.402Z,87.30
2022-11-22T04:25:48.994Z,87.90
2022-11-22T04:28:19.339Z,87.61
2022-11-22T04:31:06.954Z,87.57
2022-11-22T04:33:35.618Z,87.36
2022-11-22T04:36:04.985Z,87.26
2022-11-22T04:38:34.593Z,87.41
2022-11-22T04:41:02.287Z,86.96
2022-11-22T04:43:49.082Z,87.10
2022-11-22T04:46:17.268Z,86.99
2022-11-22T04:48:45.222Z,86.94
2022-11-22T04:51:33.478Z,87.20
2022-11-22T04:54:01.456Z,87.76
2022-11-22T04:56:29.218Z,87.67
2022-11-22T04:58:57.114Z,87.54
2022-11-22T05:01:25.068Z,87.77
2022-11-22T05:03:53.048Z,87.87
2022-11-22T05:06:20.714Z,87.38
2022-11-22T05:08:48.874Z,87.31
2022-11-22T05:11:16.665Z,87.76
2022-11-22T05:13:44.843Z,87.86
2022-11-22T05:16:15.169Z,87.70
2022-11-22T05:18:43.696Z,87.99
2022-11-22T05:21:14.078Z,88.10
2022-11-22T05:24:08.173Z,88.30
2022-11-22T05:26:36.936Z,88.63
2022-11-22T05:29:09.715Z,88.95
2022-11-22T05:31:39.078Z,88.49
2022-11-22T05:34:07.101Z,88.96
2022-11-22T05:36:35.380Z,88.95
2022-11-22T05:39:03.719Z,89.15
2022-11-22T05:41:31.425Z,89.43
2022-11-22T05:43:59.412Z,88.97
2022-11-22T05:46:29.922Z,89.13
2022-11-22T05:48:58.816Z,89.39
2022-11-22T05:51:34.893Z,89.05
2022-11-22T05:54:03.659Z,89.53
2022-11-22T05:56:31.373Z,89.47
2022-11-22T05:58:59.383Z,88.91
2022-11-22T06:01:27.249Z,89.33
2022-11-22T06:03:55.333Z,89.30
2022-11-22T06:06:23.203Z,88.81
2022-11-22T06:08:51.696Z,89.25
2022-11-22T06:11:21.845Z,89.24
2022-11-22T06:13:53.763Z,89.40
2022-11-22T06:16:21.973Z,89.95
2022-11-22T06:18:50.147Z,89.45
2022-11-22T06:21:23.307Z,89.14
2022-11-22T06:23:52.956Z,89.29
2022-11-22T06:26:22.985Z,88.58
2022-11-22T06:28:51.275Z,88.85
2022-11-22T06:31:25.742Z,89.32
2022-11-22T06:33:55.472Z,88.93
2022-11-22T06:36:25.438Z,89.14
2022-11-22T06:38:53.511Z,88.84
2022-11-22T06:41:26.746Z,88.68
2022-11-22T06:43:58.572Z,89.24
2022-11-22T06:46:27.665Z,88.95
2022-11-22T06:48:55.684Z,89.28
2022-11-22T06:51:31.926Z,89.04
2022-11-22T06:54:00.161Z,88.67
2022-11-22T06:56:30.836Z,88.90
2022-11-22T06:59:01.447Z,88.88
2022-11-22T07:01:30.730Z,89.63
2022-11-22T07:03:59.661Z,89.23
2022-11-22T07:06:30.009Z,89.20
2022-11-22T07:09:02.468Z,89.06
2022-11-22T07:11:32.050Z,89.30
2022-11-22T07:14:06.948Z,89.16
2022-11-22T07:16:37.491Z,89.40
2022-11-22T07:19:06.613Z,89.08
2022-11-22T07:21:37.366Z,89.36
2022-11-22T07:24:06.759Z,89.34
2022-11-22T07:26:34.744Z,89.51
2022-11-22T07:29:02.556Z,89.53
2022-11-22T07:31:30.528Z,89.65
2022-11-22T07:33:58.677Z,89.96
2022-11-22T07:36:29.522Z,89.90
2022-11-22T07:38:57.470Z,89.28
2022-11-22T07:41:25.725Z,89.80
2022-11-22T07:43:53.395Z,89.24
2022-11-22T07:46:33.731Z,88.93
2022-11-22T07:49:02.768Z,89.04
2022-11-22T07:51:30.897Z,89.63
2022-11-22T07:53:59.097Z,89.16
2022-11-22T07:56:27.096Z,89.46
2022-11-22T07:58:55.668Z,89.44
2022-11-22T08:01:23.797Z,89.46
2022-11-22T08:03:51.576Z,89.16
2022-11-22T08:06:19.664Z,89.10
2022-11-22T08:08:47.344Z,88.68
2022-11-22T08:11:15.272Z,89.32
2022-11-22T08:13:44.888Z,89.36
2022-11-22T08:16:15.533Z,89.43
2022-11-22T08:18:48.382Z,88.91
2022-11-22T08:21:18.021Z,89.02
2022-11-22T08:23:47.329Z,89.74
2022-11-22T08:26:17.808Z,89.61
2022-11-22T08:28:45.628Z,88.89
2022-11-22T08:31:16.976Z,89.24
2022-11-22T08:33:44.816Z,88.85
2022-11-22T08:36:12.785Z,88.26
2022-11-22T08:38:41.507Z,88.82
2022-11-22T08:41:09.332Z,89.33
2022-11-22T08:43:37.477Z,89.60
2022-11-22T08:46:06.582Z,88.88
2022-11-22T08:48:37.869Z,88.86
2022-11-22T08:51:10.057Z,88.54
2022-11-22T08:53:41.022Z,88.55
2022-11-22T08:56:14.387Z,88.81
2022-11-22T08:58:43.224Z,88.99
2022-11-22T09:01:13.922Z,88.46
2022-11-22T09:03:43.239Z,87.66
2022-11-22T09:11:49.367Z,88.36
2022-11-22T09:14:17.442Z,88.48
2022-11-22T09:16:45.097Z,88.10
2022-11-22T09:19:13.370Z,87.35
2022-11-22T09:21:41.115Z,87.64
2022-11-22T09:24:09.237Z,87.69
2022-11-22T09:26:36.986Z,87.55
2022-11-22T09:29:05.252Z,86.92
2022-11-22T09:31:32.988Z,85.88
2022-11-22T09:34:01.047Z,86.15
2022-11-22T09:36:28.853Z,86.17
2022-11-22T09:38:57.022Z,86.33
2022-11-22T09:41:53.926Z,86.63
2022-11-22T09:44:43.307Z,86.55
2022-11-22T09:47:20.244Z,85.90
2022-11-22T09:50:06.212Z,85.84
2022-11-22T09:52:48.750Z,85.51
2022-11-22T09:55:41.072Z,85.83
2022-11-22T09:58:14.621Z,85.73
2022-11-22T10:00:49.194Z,85.65
2022-11-22T10:03:40.870Z,85.60
2022-11-22T10:06:21.019Z,85.27
2022-11-22T10:09:09.131Z,85.40
2022-11-22T10:11:53.810Z,85.61
2022-11-22T10:14:46.343Z,85.23
2022-11-22T10:17:51.238Z,84.44
2022-11-22T10:20:21.249Z,84.38
2022-11-22T10:22:50.270Z,85.28
2022-11-22T10:25:19.643Z,85.16
2022-11-22T10:28:09.998Z,85.49
2022-11-22T10:30:43.601Z,84.06
2022-11-22T10:33:44.814Z,83.85
2022-11-22T10:36:35.717Z,82.35
2022-11-22T10:39:18.422Z,83.07
2022-11-22T10:42:15.981Z,82.92
2022-11-22T10:45:05.315Z,82.38
2022-11-22T10:47:48.041Z,82.26
2022-11-22T10:50:48.447Z,82.02
2022-11-22T10:53:40.054Z,81.31
2022-11-22T10:56:23.342Z,81.08
2022-11-22T10:58:53.934Z,81.91
2022-11-22T11:01:40.224Z,81.50
2022-11-22T11:04:10.687Z,81.24
2022-11-22T11:12:35.297Z,79.46
2022-11-22T11:15:20.672Z,79.38
2022-11-22T11:17:55.448Z,79.58
2022-11-22T11:20:43.864Z,78.95
2022-11-22T11:23:16.073Z,79.47
2022-11-22T11:25:46.560Z,79.34
2022-11-22T11:28:22.009Z,79.10
2022-11-22T11:31:02.155Z,80.06
2022-11-22T11:33:37.642Z,79.43
2022-11-22T11:36:18.550Z,79.06
2022-11-22T11:38:46.500Z,78.69
2022-11-22T11:41:29.250Z,78.88
2022-11-22T11:44:02.034Z,78.79
2022-11-22T11:46:50.901Z,79.09
2022-11-22T11:49:27.113Z,79.55
2022-11-22T11:52:28.820Z,78.30
2022-11-22T11:55:00.604Z,78.19
2022-11-22T11:57:36.739Z,78.69
2022-11-22T12:00:18.937Z,77.96
2022-11-22T12:02:47.962Z,78.25
2022-11-22T12:05:16.094Z,77.97
2022-11-22T12:07:46.354Z,77.13
2022-11-22T12:10:29.902Z,76.18
2022-11-22T12:13:04.893Z,76.08
2022-11-22T12:15:59.001Z,75.73
2022-11-22T12:18:39.096Z,75.51
2022-11-22T12:21:39.104Z,75.90
2022-11-22T12:24:45.617Z,75.85
2022-11-22T12:27:00.206Z,75.84
2022-11-22T12:29:28.551Z,75.41
2022-11-22T12:32:18.985Z,75.38
2022-11-22T12:35:03.352Z,75.77
2022-11-22T12:37:43.299Z,75.89
2022-11-22T12:40:18.687Z,75.97
2022-11-22T12:42:59.811Z,76.02
2022-11-22T12:45:39.429Z,75.74
2022-11-22T12:48:28.570Z,76.54
2022-11-22T12:51:13.716Z,76.17
2022-11-22T12:53:45.478Z,76.34
2022-11-22T12:56:31.404Z,76.22
2022-11-22T12:59:01.131Z,75.63
2022-11-22T13:01:54.732Z,75.80
2022-11-22T13:04:45.628Z,76.31
2022-11-22T13:07:27.384Z,76.71
2022-11-22T13:10:34.374Z,77.24
2022-11-22T13:13:04.776Z,77.83
2022-11-22T13:15:36.613Z,78.01
2022-11-22T13:18:09.544Z,78.59
2022-11-22T13:20:44.407Z,78.05
2022-11-22T13:23:53.118Z,78.14
2022-11-22T13:26:37.604Z,78.37
2022-11-22T13:29:31.194Z,78.36
2022-11-22T13:32:14.158Z,78.28
2022-11-22T13:35:00.755Z,78.53
2022-11-22T13:37:31.171Z,78.94
2022-11-22T13:40:10.999Z,78.90
2022-11-22T13:42:39.030Z,79.00
2022-11-22T13:45:24.088Z,79.40
2022-11-22T13:47:52.586Z,79.68
2022-11-22T13:50:58.577Z,78.96
2022-11-22T13:53:29.911Z,79.64
2022-11-22T13:56:08.997Z,79.74
2022-11-22T13:58:39.774Z,79.98
2022-11-22T14:01:36.682Z,80.11
2022-11-22T14:04:17.099Z,80.44
2022-11-22T14:06:51.629Z,80.98
2022-11-22T14:09:36.946Z,81.02
2022-11-22T14:12:20.847Z,80.75
2022-11-22T14:15:08.617Z,81.15
2022-11-22T14:17:45.553Z,81.07
2022-11-22T14:20:37.336Z,81.06
2022-11-22T14:23:42.378Z,81.13
2022-11-22T14:26:46.689Z,81.32
2022-11-22T14:29:53.938Z,81.68
2022-11-22T14:32:24.564Z,81.79
2022-11-22T14:35:29.498Z,82.75
2022-11-22T14:38:07.283Z,82.62
2022-11-22T14:40:39.219Z,82.22
2022-11-22T14:43:21.513Z,82.66
2022-11-22T14:46:37.168Z,83.26
2022-11-22T14:49:36.177Z,83.19
2022-11-22T14:52:16.734Z,83.71
2022-11-22T14:54:49.288Z,83.65
2022-11-22T14:57:21.784Z,84.24
2022-11-22T15:00:13.828Z,84.14
2022-11-22T15:03:06.051Z,84.49
2022-11-22T15:09:17.242Z,84.37
2022-11-22T15:09:19.924Z,84.75
2022-11-22T15:12:04.101Z,84.89
2022-11-22T15:58:13.855Z,86.82
2022-11-22T16:00:44.848Z,87.13
2022-11-22T16:03:34.312Z,86.87
2022-11-22T16:06:12.102Z,87.14
2022-11-22T16:08:47.774Z,86.98
2022-11-22T16:11:41.375Z,87.18
2022-11-22T16:14:49.402Z,87.42
2022-11-22T16:17:38.067Z,87.36
2022-11-22T16:20:27.100Z,88.17
2022-11-22T16:23:11.974Z,87.96
2022-11-22T16:25:49.852Z,88.22
2022-11-22T16:28:23.659Z,88.78
2022-11-22T16:30:53.523Z,88.81
2022-11-22T16:33:22.092Z,88.94
2022-11-22T16:35:54.228Z,89.12
2022-11-22T16:38:23.017Z,89.49
2022-11-22T16:40:51.493Z,89.64
2022-11-22T16:43:21.991Z,89.06
2022-11-22T16:45:50.692Z,89.46
2022-11-22T16:48:31.973Z,89.01
2022-11-22T16:51:05.002Z,89.22
2022-11-22T16:53:53.373Z,89.08
2022-11-22T16:56:26.796Z,89.01
2022-11-22T16:58:56.772Z,89.22
2022-11-22T17:01:31.087Z,89.15
2022-11-22T17:04:00.864Z,89.09
2022-11-22T17:06:32.811Z,88.89
2022-11-22T17:09:01.316Z,90.00
2022-11-22T17:11:32.755Z,89.45
2022-11-22T17:14:00.920Z,89.35
2022-11-22T17:16:29.055Z,89.79
2022-11-22T17:18:57.233Z,89.72
2022-11-22T17:21:37.269Z,90.17
2022-11-22T17:24:20.719Z,89.90
2022-11-22T17:26:48.737Z,89.72
2022-11-22T17:29:42.877Z,89.67
2022-11-22T17:32:04.538Z,89.58
2022-11-22T17:34:32.676Z,89.66
2022-11-22T17:37:00.953Z,90.35
2022-11-22T17:39:28.861Z,90.07
2022-11-22T17:41:57.051Z,89.99
2022-11-22T17:44:25.763Z,90.21
2022-11-22T17:46:55.170Z,90.17
2022-11-22T17:49:23.122Z,90.27
2022-11-22T17:51:51.239Z,89.73
2022-11-22T17:54:19.047Z,89.70
2022-11-22T17:56:47.060Z,89.85
2022-11-22T17:59:14.697Z,89.71
2022-11-22T18:01:43.373Z,89.74
2022-11-22T18:04:11.753Z,89.88
2022-11-22T18:06:39.675Z,90.34
2022-11-22T18:09:07.465Z,90.20
2022-11-22T18:11:35.473Z,90.25
2022-11-22T18:14:03.289Z,89.84
2022-11-22T18:16:31.418Z,90.14
2022-11-22T18:19:00.670Z,90.26
2022-11-22T18:21:30.539Z,89.53
2022-11-22T18:23:59.672Z,89.56
2022-11-22T18:26:43.679Z,89.72
2022-11-22T18:32:02.144Z,89.50
2022-11-22T18:34:30.602Z,89.44
2022-11-22T18:37:03.806Z,89.75
2022-11-22T18:39:35.746Z,89.80
2022-11-22T18:42:06.235Z,90.15
2022-11-22T18:44:34.309Z,89.91
2022-11-22T18:47:02.415Z,89.52
2022-11-22T18:49:30.800Z,88.92
2022-11-22T18:51:59.082Z,89.28
2022-11-22T18:54:27.029Z,88.79
2022-11-22T18:56:55.069Z,88.74
2022-11-22T18:59:22.901Z,88.70
2022-11-22T19:01:50.837Z,89.09
2022-11-22T19:04:18.601Z,88.85
2022-11-22T19:06:46.637Z,88.78
2022-11-22T19:09:14.508Z,88.58
2022-11-22T19:11:42.475Z,88.51
2022-11-22T19:14:10.441Z,88.60
2022-11-22T19:16:38.448Z,88.89
2022-11-22T19:19:08.159Z,89.18
2022-11-22T19:21:36.218Z,89.74
2022-11-22T19:24:04.151Z,90.03
2022-11-22T19:26:32.113Z,90.00
2022-11-22T19:29:02.577Z,89.45
2022-11-22T19:31:31.582Z,89.70
2022-11-22T19:34:00.194Z,89.42
2022-11-22T19:36:34.145Z,89.71
2022-11-22T19:39:04.183Z,89.42
2022-11-22T19:41:32.943Z,89.07
2022-11-22T19:44:01.052Z,89.24
2022-11-22T19:46:30.099Z,89.62
2022-11-22T19:48:59.250Z,89.75
2022-11-22T19:51:29.524Z,89.66
2022-11-22T19:53:59.518Z,90.01
2022-11-22T19:56:31.976Z,89.52
2022-11-22T19:59:02.028Z,89.39
2022-11-22T20:01:32.236Z,89.07
2022-11-22T20:04:03.593Z,89.10
2022-11-22T20:06:33.115Z,89.31
2022-11-22T20:09:04.868Z,89.52
2022-11-22T20:11:32.924Z,89.45
2022-11-22T20:14:01.051Z,89.29
2022-11-22T20:16:30.695Z,88.97
2022-11-22T20:19:04.619Z,89.02
2022-11-22T20:21:34.519Z,88.88
2022-11-22T20:24:03.217Z,88.99
2022-11-22T20:26:33.069Z,89.47
2022-11-22T20:29:06.875Z,89.77
2022-11-22T20:31:36.834Z,89.02
2022-11-22T20:34:05.484Z,89.23
2022-11-22T20:36:34.983Z,89.10
2022-11-22T20:39:08.593Z,88.90
2022-11-22T20:41:40.068Z,89.19
2022-11-22T20:44:12.880Z,88.96
2022-11-22T20:46:41.269Z,88.88
2022-11-22T20:49:08.974Z,89.39
2022-11-22T20:51:39.684Z,89.44
2022-11-22T20:54:09.168Z,89.93
2022-11-22T20:56:38.297Z,89.54
2022-11-22T20:59:06.367Z,89.76
2022-11-22T21:01:34.505Z,89.89
2022-11-22T21:04:02.344Z,90.24
2022-11-22T21:06:32.819Z,89.93
2022-11-22T21:09:00.635Z,89.74
2022-11-22T21:11:30.960Z,90.50
2022-11-22T21:13:59.132Z,89.63
2022-11-22T21:16:30.873Z,90.07
2022-11-22T21:19:01.691Z,89.58
2022-11-22T21:21:31.027Z,90.02
2022-11-22T21:24:00.919Z,90.48
2022-11-22T21:26:29.551Z,90.43
2022-11-22T21:28:59.459Z,90.07
2022-11-22T21:31:28.337Z,89.48
2022-11-22T21:33:56.738Z,89.77
2022-11-22T21:36:25.108Z,89.96
2022-11-22T21:38:53.179Z,90.33
2022-11-22T21:44:10.972Z,89.88
2022-11-22T21:46:39.114Z,89.70
2022-11-22T21:49:07.593Z,89.87
2022-11-22T21:51:35.352Z,89.86
2022-11-22T21:54:03.959Z,90.53
2022-11-22T21:56:32.101Z,90.30
2022-11-22T21:59:00.569Z,89.78
2022-11-22T22:01:28.809Z,90.28
2022-11-22T22:03:57.047Z,89.93
2022-11-22T22:06:25.277Z,89.91
2022-11-22T22:08:53.382Z,89.58
2022-11-22T22:11:21.657Z,89.36
2022-11-22T22:13:49.781Z,89.47
2022-11-22T22:16:23.236Z,89.19
2022-11-22T22:18:52.137Z,89.23
2022-11-22T22:21:21.257Z,89.33
2022-11-22T22:23:49.371Z,89.28
2022-11-22T22:26:17.966Z,89.25
2022-11-22T22:28:46.512Z,89.99
2022-11-22T22:31:22.660Z,89.58
2022-11-22T22:33:55.765Z,90.32
2022-11-22T22:36:25.408Z,90.66
2022-11-22T22:38:54.939Z,90.61
2022-11-22T22:41:22.794Z,90.45
2022-11-22T22:43:50.912Z,90.31
2022-11-22T22:46:20.926Z,89.78
2022-11-22T22:48:49.792Z,90.34
2022-11-22T22:51:20.098Z,90.04
2022-11-22T22:53:48.619Z,89.67
2022-11-22T22:56:19.052Z,90.15
2022-11-22T22:58:47.319Z,90.24
2022-11-22T23:01:21.167Z,90.05
2022-11-22T23:03:54.307Z,89.81
2022-11-22T23:06:23.257Z,89.88
2022-11-22T23:08:53.292Z,89.95
2022-11-22T23:11:46.450Z,90.06
2022-11-22T23:14:23.022Z,90.52
2022-11-22T23:16:56.003Z,89.97
2022-11-22T23:19:26.658Z,89.71
2022-11-22T23:21:55.017Z,89.26
2022-11-22T23:24:23.138Z,89.66
2022-11-22T23:26:50.860Z,89.71
2022-11-22T23:29:18.893Z,89.32
2022-11-22T23:31:46.639Z,89.47
2022-11-22T23:34:14.688Z,89.04
2022-11-22T23:36:42.421Z,89.62
2022-11-22T23:39:10.596Z,89.87
2022-11-22T23:41:38.570Z,89.92
2022-11-22T23:44:06.999Z,89.98
2022-11-22T23:46:34.869Z,90.46
2022-11-22T23:49:05.580Z,90.42
2022-11-22T23:51:34.950Z,90.20
2022-11-22T23:54:05.737Z,90.07
2022-11-22T23:56:35.344Z,90.27
2022-11-22T23:59:05.609Z,89.71
